createdAt,value
2022-09-21T00:02:27.531Z,250.90
2022-09-21T00:05:17.171Z,262.57
2022-09-21T00:08:06.786Z,240.63
2022-09-21T00:10:54.656Z,245.83
2022-09-21T00:13:43.355Z,245.47
2022-09-21T00:16:32.679Z,240.10
2022-09-21T00:19:20.563Z,217.73
2022-09-21T00:22:09.805Z,221.77
2022-09-21T00:24:57.867Z,227.07
2022-09-21T00:27:47.754Z,229.67
2022-09-21T00:30:35.656Z,234.73
2022-09-21T00:33:24.578Z,215.27
2022-09-21T00:36:14.638Z,205.17
2022-09-21T00:39:04.721Z,240.73
2022-09-21T00:41:53.596Z,224.87
2022-09-21T00:44:41.459Z,208.43
2022-09-21T00:47:34.195Z,227.17
2022-09-21T00:50:25.029Z,224.57
2022-09-21T00:53:12.965Z,215.37
2022-09-21T00:56:04.886Z,219.67
2022-09-21T00:58:55.395Z,223.07
2022-09-21T01:01:43.674Z,217.00
2022-09-21T01:04:32.591Z,227.53
2022-09-21T01:07:26.204Z,196.93
2022-09-21T01:10:18.381Z,199.80
2022-09-21T01:13:17.926Z,207.60
2022-09-21T01:16:13.859Z,200.40
2022-09-21T01:19:13.929Z,215.20
2022-09-21T01:22:09.419Z,196.00
2022-09-21T01:25:10.241Z,200.63
2022-09-21T01:28:08.347Z,203.93
2022-09-21T01:31:05.987Z,215.30
2022-09-21T01:33:58.408Z,210.17
2022-09-21T01:36:49.215Z,214.03
2022-09-21T01:39:39.805Z,199.90
2022-09-21T01:42:30.996Z,207.57
2022-09-21T01:45:21.952Z,209.03
2022-09-21T01:48:13.616Z,212.47
2022-09-21T01:51:06.344Z,203.13
2022-09-21T01:53:58.564Z,201.70
2022-09-21T01:56:52.096Z,212.47
2022-09-21T01:59:50.141Z,208.57
2022-09-21T02:02:43.069Z,208.30
2022-09-21T02:05:33.030Z,188.47
2022-09-21T02:08:21.211Z,225.60
2022-09-21T02:11:12.654Z,204.20
2022-09-21T02:14:00.839Z,212.80
2022-09-21T02:16:58.353Z,199.10
2022-09-21T02:19:50.832Z,198.83
2022-09-21T02:22:45.404Z,192.40
2022-09-21T02:25:42.400Z,216.67
2022-09-21T02:28:45.375Z,211.23
2022-09-21T02:31:39.876Z,199.40
2022-09-21T02:34:34.329Z,213.67
2022-09-21T02:37:31.134Z,202.27
2022-09-21T02:40:26.831Z,200.77
2022-09-21T02:43:22.746Z,206.83
2022-09-21T02:46:15.996Z,198.40
2022-09-21T02:49:09.137Z,187.57
2022-09-21T02:52:00.144Z,209.73
2022-09-21T02:54:52.052Z,210.43
2022-09-21T02:57:42.126Z,192.70
2022-09-21T03:00:30.456Z,215.80
2022-09-21T03:03:20.436Z,205.33
2022-09-21T03:06:08.607Z,191.47
2022-09-21T03:08:58.479Z,199.10
2022-09-21T03:11:46.429Z,222.77
2022-09-21T03:14:35.640Z,200.37
2022-09-21T03:17:23.524Z,208.63
2022-09-21T03:20:11.381Z,200.43
2022-09-21T03:22:59.332Z,202.23
2022-09-21T03:25:48.003Z,197.30
2022-09-21T03:28:35.870Z,197.63
2022-09-21T03:31:25.113Z,198.70
2022-09-21T03:34:13.514Z,213.33
2022-09-21T03:37:01.757Z,205.67
2022-09-21T03:39:49.662Z,190.80
2022-09-21T03:42:37.543Z,207.83
2022-09-21T03:45:27.270Z,204.90
2022-09-21T03:48:16.700Z,210.23
2022-09-21T03:51:04.911Z,201.13
2022-09-21T03:53:52.798Z,198.27
2022-09-21T03:56:40.678Z,197.90
2022-09-21T03:59:28.604Z,191.30
2022-09-21T04:02:16.831Z,199.33
2022-09-21T04:05:07.709Z,202.57
2022-09-21T04:07:57.204Z,187.67
2022-09-21T04:10:45.091Z,196.90
2022-09-21T04:13:35.187Z,214.13
2022-09-21T04:16:24.152Z,223.03
2022-09-21T04:19:12.235Z,212.87
2022-09-21T04:22:01.464Z,206.53
2022-09-21T04:24:49.385Z,214.77
2022-09-21T04:27:37.257Z,227.93
2022-09-21T04:30:25.147Z,207.20
2022-09-21T04:33:14.148Z,237.33
2022-09-21T04:36:02.319Z,218.53
2022-09-21T04:38:52.423Z,223.07
2022-09-21T04:41:40.412Z,222.60
2022-09-21T04:44:28.322Z,227.80
2022-09-21T04:47:16.247Z,223.73
2022-09-21T04:50:04.675Z,221.70
2022-09-21T04:52:52.579Z,233.87
2022-09-21T04:55:41.809Z,212.07
2022-09-21T04:58:29.739Z,215.10
2022-09-21T05:01:17.676Z,205.90
2022-09-21T05:04:05.704Z,214.63
2022-09-21T05:06:54.029Z,213.33
2022-09-21T05:09:59.690Z,226.43
2022-09-21T05:12:48.944Z,217.00
2022-09-21T05:15:38.260Z,215.83
2022-09-21T05:18:26.138Z,196.27
2022-09-21T05:21:15.395Z,237.10
2022-09-21T05:24:03.624Z,236.33
2022-09-21T05:26:51.521Z,221.07
2022-09-21T05:29:41.867Z,214.00
2022-09-21T05:32:42.326Z,225.27
2022-09-21T05:35:36.651Z,231.10
2022-09-21T05:38:25.036Z,209.53
2022-09-21T05:41:13.583Z,220.50
2022-09-21T05:44:02.076Z,222.70
2022-09-21T05:46:59.053Z,211.57
2022-09-21T05:49:56.263Z,211.10
2022-09-21T05:52:52.425Z,213.77
2022-09-21T05:55:53.024Z,214.77
2022-09-21T05:58:48.443Z,215.37
2022-09-21T06:01:50.943Z,213.93
2022-09-21T06:04:20.446Z,212.70
2022-09-21T06:06:48.041Z,202.80
2022-09-21T06:09:15.643Z,228.17
2022-09-21T06:11:43.291Z,227.97
2022-09-21T06:14:10.877Z,240.07
2022-09-21T06:16:39.673Z,234.63
2022-09-21T06:19:07.486Z,254.50
2022-09-21T06:21:36.410Z,251.93
2022-09-21T06:24:04.388Z,227.80
2022-09-21T06:26:31.994Z,254.13
2022-09-21T06:29:00.217Z,274.43
2022-09-21T06:31:28.034Z,252.70
2022-09-21T06:33:55.647Z,249.43
2022-09-21T06:36:23.422Z,236.63
2022-09-21T06:38:52.359Z,252.13
2022-09-21T06:41:21.382Z,251.27
2022-09-21T06:43:49.300Z,260.77
2022-09-21T06:46:16.962Z,269.33
2022-09-21T06:48:44.688Z,245.03
2022-09-21T06:51:12.286Z,245.80
2022-09-21T06:53:39.893Z,248.80
2022-09-21T06:56:11.225Z,255.97
2022-09-21T06:58:38.902Z,274.00
2022-09-21T07:01:08.337Z,255.37
2022-09-21T07:03:36.663Z,278.23
2022-09-21T07:06:04.452Z,271.40
2022-09-21T07:11:22.021Z,264.87
2022-09-21T07:13:49.589Z,262.40
2022-09-21T07:16:18.655Z,259.13
2022-09-21T07:18:46.510Z,273.27
2022-09-21T07:21:14.723Z,273.93
2022-09-21T07:23:42.590Z,290.53
2022-09-21T07:26:12.782Z,279.90
2022-09-21T07:28:42.282Z,288.53
2022-09-21T07:31:12.111Z,270.13
2022-09-21T07:33:40.069Z,278.20
2022-09-21T07:36:11.730Z,269.30
2022-09-21T07:38:40.935Z,288.60
2022-09-21T07:41:08.879Z,283.03
2022-09-21T07:43:39.206Z,286.90
2022-09-21T07:46:09.246Z,266.35
2022-09-21T07:48:37.230Z,287.05
2022-09-21T07:51:06.302Z,304.67
2022-09-21T07:53:34.549Z,279.85
2022-09-21T07:56:03.374Z,273.27
2022-09-21T07:58:48.938Z,288.23
2022-09-21T08:01:18.032Z,288.77
2022-09-21T08:03:45.795Z,267.58
2022-09-21T08:06:13.346Z,285.05
2022-09-21T08:08:41.627Z,294.20
2022-09-21T08:11:11.754Z,284.02
2022-09-21T08:13:39.376Z,285.23
2022-09-21T08:16:07.726Z,286.40
2022-09-21T08:18:39.629Z,273.65
2022-09-21T08:21:08.481Z,299.60
2022-09-21T08:23:40.156Z,299.73
2022-09-21T08:26:08.390Z,293.38
2022-09-21T08:28:36.540Z,290.70
2022-09-21T08:31:05.964Z,328.02
2022-09-21T08:33:33.665Z,319.65
2022-09-21T08:36:03.445Z,304.48
2022-09-21T08:38:35.468Z,314.27
2022-09-21T08:41:04.343Z,310.15
2022-09-21T08:43:36.999Z,338.63
2022-09-21T08:46:08.818Z,331.08
2022-09-21T08:48:41.148Z,334.45
2022-09-21T08:51:14.071Z,318.30
2022-09-21T08:53:44.751Z,320.08
2022-09-21T08:56:14.121Z,311.85
2022-09-21T08:58:42.343Z,315.73
2022-09-21T09:01:29.590Z,325.30
2022-09-21T09:04:19.513Z,322.88
2022-09-21T09:06:57.838Z,327.42
2022-09-21T09:09:40.886Z,313.52
2022-09-21T09:12:20.373Z,340.95
2022-09-21T09:15:08.615Z,339.25
2022-09-21T09:17:50.856Z,346.00
2022-09-21T09:20:31.054Z,355.33
2022-09-21T09:23:07.969Z,340.17
2022-09-21T09:25:38.787Z,365.98
2022-09-21T09:28:23.554Z,364.15
2022-09-21T09:30:58.549Z,367.83
2022-09-21T09:33:31.489Z,365.23
2022-09-21T09:36:03.391Z,361.15
2022-09-21T09:38:38.020Z,379.40
2022-09-21T09:41:19.391Z,367.90
2022-09-21T09:44:00.312Z,351.00
2022-09-21T09:46:34.791Z,328.42
2022-09-21T09:49:17.525Z,336.98
2022-09-21T09:51:47.061Z,334.02
2022-09-21T09:54:17.280Z,319.33
2022-09-21T09:56:45.308Z,340.85
2022-09-21T09:59:25.632Z,305.75
2022-09-21T10:02:01.762Z,330.35
2022-09-21T10:04:29.763Z,328.63
2022-09-21T10:06:58.789Z,328.95
2022-09-21T10:09:29.260Z,320.65
2022-09-21T10:12:00.749Z,331.33
2022-09-21T10:14:33.660Z,339.20
2022-09-21T10:17:06.844Z,335.20
2022-09-21T10:19:34.930Z,325.80
2022-09-21T10:22:05.870Z,339.95
2022-09-21T10:24:37.417Z,323.20
2022-09-21T10:27:10.252Z,319.13
2022-09-21T10:29:44.146Z,314.40
2022-09-21T10:32:24.710Z,313.25
2022-09-21T10:35:16.660Z,328.85
2022-09-21T10:37:53.583Z,315.75
2022-09-21T10:40:26.931Z,335.08
2022-09-21T10:42:56.259Z,297.92
2022-09-21T10:45:26.443Z,309.02
2022-09-21T10:47:57.242Z,281.67
2022-09-21T10:50:28.572Z,280.23
2022-09-21T10:53:01.772Z,257.20
2022-09-21T10:55:32.888Z,245.00
2022-09-21T10:58:01.048Z,238.27
2022-09-21T11:00:42.958Z,245.93
2022-09-21T11:03:48.000Z,214.75
2022-09-21T11:06:19.388Z,236.70
2022-09-21T11:08:56.038Z,213.35
2022-09-21T11:11:47.586Z,249.35
2022-09-21T11:14:28.905Z,229.85
2022-09-21T11:16:59.063Z,242.85
2022-09-21T11:19:34.664Z,232.20
2022-09-21T11:22:08.574Z,226.80
2022-09-21T11:24:45.970Z,227.65
2022-09-21T11:27:18.779Z,261.17
2022-09-21T11:29:55.314Z,236.77
2022-09-21T11:32:38.707Z,224.88
2022-09-21T11:35:28.902Z,223.00
2022-09-21T11:38:06.035Z,199.02
2022-09-21T11:40:48.839Z,176.52
2022-09-21T11:43:33.121Z,171.55
2022-09-21T11:46:11.771Z,172.80
2022-09-21T11:48:53.823Z,169.32
2022-09-21T11:51:42.531Z,176.65
2022-09-21T11:54:34.825Z,175.55
2022-09-21T11:57:11.165Z,195.95
2022-09-21T11:59:50.736Z,187.80
2022-09-21T12:02:44.329Z,198.73
2022-09-21T12:05:20.329Z,185.15
2022-09-21T12:08:16.521Z,199.48
2022-09-21T12:10:53.753Z,188.73
2022-09-21T12:13:31.915Z,184.05
2022-09-21T12:16:12.282Z,204.30
2022-09-21T12:18:48.053Z,195.05
2022-09-21T12:21:22.109Z,205.23
2022-09-21T12:23:53.154Z,206.85
2022-09-21T12:26:26.133Z,211.35
2022-09-21T12:29:00.957Z,203.38
2022-09-21T12:31:36.206Z,197.60
2022-09-21T12:34:10.271Z,195.75
2022-09-21T12:36:42.809Z,209.93
2022-09-21T12:39:20.355Z,203.07
2022-09-21T12:41:55.449Z,197.20
2022-09-21T12:44:33.611Z,201.95
2022-09-21T12:47:10.040Z,195.35
2022-09-21T12:49:42.605Z,198.20
2022-09-21T12:52:16.048Z,190.13
2022-09-21T12:54:51.989Z,200.77
2022-09-21T12:57:49.122Z,192.57
2022-09-21T13:00:22.062Z,206.60
2022-09-21T13:02:55.149Z,213.80
2022-09-21T13:05:38.651Z,198.90
2022-09-21T13:08:13.247Z,205.45
2022-09-21T13:10:44.662Z,213.13
2022-09-21T13:13:24.443Z,198.52
2022-09-21T13:15:53.859Z,217.55
2022-09-21T13:18:25.717Z,188.77
2022-09-21T13:20:54.340Z,199.90
2022-09-21T13:23:35.235Z,198.23
2022-09-21T13:26:05.822Z,198.02
2022-09-21T13:29:03.544Z,191.02
2022-09-21T13:31:43.223Z,191.60
2022-09-21T13:34:33.348Z,192.68
2022-09-21T13:37:34.158Z,197.68
2022-09-21T13:40:38.683Z,185.88
2022-09-21T13:43:47.978Z,180.45
2022-09-21T13:46:49.532Z,184.93
2022-09-21T13:49:22.881Z,189.90
2022-09-21T13:51:58.287Z,193.23
2022-09-21T13:54:30.822Z,193.15
2022-09-21T13:57:08.582Z,195.30
2022-09-21T13:59:39.239Z,198.80
2022-09-21T14:02:25.184Z,190.02
2022-09-21T14:04:53.192Z,198.02
2022-09-21T14:07:21.196Z,182.60
2022-09-21T14:09:57.301Z,191.68
2022-09-21T14:12:29.529Z,169.70
2022-09-21T14:15:31.453Z,189.38
2022-09-21T14:18:36.723Z,185.63
2022-09-21T14:21:18.879Z,174.35
2022-09-21T14:24:20.156Z,170.70
2022-09-21T14:26:56.086Z,190.75
2022-09-21T14:29:29.016Z,181.73
2022-09-21T14:32:00.834Z,176.45
2022-09-21T14:34:36.684Z,183.18
2022-09-21T14:37:12.609Z,183.00
2022-09-21T14:39:45.905Z,191.43
2022-09-21T14:42:19.423Z,177.25
2022-09-21T14:44:49.866Z,179.45
2022-09-21T14:47:38.037Z,173.65
2022-09-21T14:50:28.496Z,178.05
2022-09-21T14:53:28.079Z,189.00
2022-09-21T14:56:15.544Z,183.55
2022-09-21T14:58:58.848Z,189.27
2022-09-21T15:01:38.283Z,187.35
2022-09-21T15:04:24.290Z,184.05
2022-09-21T15:07:20.934Z,182.07
2022-09-21T15:10:32.373Z,193.40
2022-09-21T15:13:07.645Z,189.82
2022-09-21T15:15:41.274Z,195.25
2022-09-21T15:18:17.801Z,202.70
2022-09-21T15:20:46.137Z,188.93
2022-09-21T15:23:20.168Z,198.48
2022-09-21T15:25:59.439Z,196.60
2022-09-21T15:28:35.055Z,207.55
2022-09-21T15:31:10.075Z,205.52
2022-09-21T15:33:40.080Z,200.27
2022-09-21T15:36:09.548Z,201.52
2022-09-21T15:38:39.272Z,213.45
2022-09-21T15:41:11.484Z,204.10
2022-09-21T15:43:41.534Z,200.90
2022-09-21T15:46:13.452Z,200.00
2022-09-21T15:48:42.412Z,209.60
2022-09-21T15:51:15.208Z,183.90
2022-09-21T15:53:48.107Z,186.52
2022-09-21T15:56:20.636Z,203.35
2022-09-21T15:58:49.796Z,202.13
2022-09-21T16:01:21.441Z,209.18
2022-09-21T16:03:53.928Z,221.60
2022-09-21T16:06:27.111Z,208.32
2022-09-21T16:08:56.635Z,215.13
2022-09-21T16:11:35.775Z,209.70
2022-09-21T16:14:27.137Z,210.45
2022-09-21T16:17:21.604Z,203.57
2022-09-21T16:20:22.903Z,203.57
2022-09-21T16:22:55.309Z,211.25
2022-09-21T16:25:32.647Z,219.85
2022-09-21T16:28:02.381Z,211.88
2022-09-21T16:30:48.665Z,222.88
2022-09-21T16:33:41.074Z,223.95
2022-09-21T16:36:38.005Z,229.38
2022-09-21T16:39:12.814Z,230.75
2022-09-21T16:41:48.208Z,230.85
2022-09-21T16:44:20.781Z,215.75
2022-09-21T16:46:51.862Z,221.77
2022-09-21T16:49:21.743Z,229.88
2022-09-21T16:51:50.459Z,231.80
2022-09-21T16:54:20.044Z,229.13
2022-09-21T16:56:49.083Z,229.13
2022-09-21T16:59:19.477Z,227.88
2022-09-21T17:01:55.372Z,230.45
2022-09-21T17:04:25.742Z,222.48
2022-09-21T17:06:55.059Z,222.85
2022-09-21T17:09:29.178Z,217.15
2022-09-21T17:12:00.194Z,214.82
2022-09-21T17:14:34.908Z,239.38
2022-09-21T17:17:05.672Z,218.75
2022-09-21T17:19:34.735Z,236.90
2022-09-21T17:22:03.655Z,239.27
2022-09-21T17:24:49.198Z,228.13
2022-09-21T17:27:19.840Z,239.68
2022-09-21T17:29:49.183Z,260.20
2022-09-21T17:32:19.946Z,246.48
2022-09-21T17:34:50.200Z,259.30
2022-09-21T17:37:17.821Z,262.77
2022-09-21T17:39:46.261Z,268.60
2022-09-21T17:42:18.743Z,272.05
2022-09-21T17:45:12.319Z,272.10
2022-09-21T17:47:40.738Z,273.05
2022-09-21T17:50:22.878Z,286.30
2022-09-21T17:53:08.790Z,258.33
2022-09-21T17:55:37.094Z,283.33
2022-09-21T17:58:14.768Z,285.95
2022-09-21T18:00:50.565Z,283.65
2022-09-21T18:03:22.320Z,312.63
2022-09-21T18:05:52.663Z,303.92
2022-09-21T18:08:20.863Z,308.90
2022-09-21T18:10:58.261Z,323.90
2022-09-21T18:13:38.118Z,307.23
2022-09-21T18:16:21.232Z,315.17
2022-09-21T18:18:56.236Z,302.60
2022-09-21T18:21:27.870Z,294.60
2022-09-21T18:24:22.501Z,297.38
2022-09-21T18:26:52.467Z,278.88
2022-09-21T18:29:39.387Z,295.80
2022-09-21T18:32:26.532Z,298.43
2022-09-21T18:35:21.847Z,283.40
2022-09-21T18:38:18.876Z,310.43
2022-09-21T18:41:21.330Z,296.70
2022-09-21T18:44:14.655Z,311.77
2022-09-21T18:47:10.794Z,301.10
2022-09-21T18:50:06.226Z,313.27
2022-09-21T18:53:02.367Z,303.53
2022-09-21T18:55:52.080Z,301.27
2022-09-21T18:58:41.532Z,327.23
2022-09-21T19:01:33.157Z,326.50
2022-09-21T19:04:21.591Z,333.37
2022-09-21T19:07:21.048Z,320.87
2022-09-21T19:10:16.177Z,331.57
2022-09-21T19:13:27.830Z,323.90
2022-09-21T19:16:24.912Z,318.77
2022-09-21T19:19:25.517Z,304.87
2022-09-21T19:22:20.153Z,308.90
2022-09-21T19:25:17.110Z,316.37
2022-09-21T19:28:22.414Z,334.13
2022-09-21T19:31:12.611Z,320.57
2022-09-21T19:34:06.507Z,339.13
2022-09-21T19:36:57.067Z,310.30
2022-09-21T19:39:46.783Z,300.43
2022-09-21T19:42:42.354Z,318.90
2022-09-21T19:45:36.859Z,312.03
2022-09-21T19:48:28.439Z,312.53
2022-09-21T19:51:21.054Z,311.37
2022-09-21T19:54:31.945Z,311.07
2022-09-21T19:57:40.498Z,284.00
2022-09-21T20:00:28.759Z,289.20
2022-09-21T20:03:27.013Z,289.57
2022-09-21T20:06:21.439Z,302.80
2022-09-21T20:09:15.770Z,288.07
2022-09-21T20:12:10.990Z,285.57
2022-09-21T20:15:11.668Z,287.27
2022-09-21T20:18:05.324Z,298.63
2022-09-21T20:20:53.708Z,280.53
2022-09-21T20:23:42.536Z,288.37
2022-09-21T20:26:30.941Z,280.93
2022-09-21T20:29:19.925Z,289.73
2022-09-21T20:32:10.501Z,278.37
2022-09-21T20:34:58.961Z,279.37
2022-09-21T20:37:47.377Z,287.63
2022-09-21T20:40:35.715Z,292.80
2022-09-21T20:43:30.280Z,279.13
2022-09-21T20:46:20.413Z,292.30
2022-09-21T20:49:09.709Z,293.20
2022-09-21T20:51:59.182Z,297.33
2022-09-21T20:54:49.581Z,285.73
2022-09-21T20:57:38.189Z,291.67
2022-09-21T21:00:26.666Z,298.83
2022-09-21T21:03:14.577Z,287.33
2022-09-21T21:06:11.495Z,283.70
2022-09-21T21:08:59.636Z,289.63
2022-09-21T21:11:47.620Z,288.53
2022-09-21T21:14:35.655Z,266.10
2022-09-21T21:17:23.622Z,281.37
2022-09-21T21:20:11.843Z,288.13
2022-09-21T21:23:05.804Z,274.73
2022-09-21T21:25:55.683Z,269.97
2022-09-21T21:28:43.587Z,279.83
2022-09-21T21:31:31.994Z,248.87
2022-09-21T21:34:19.858Z,244.43
2022-09-21T21:37:08.724Z,258.20
2022-09-21T21:39:58.440Z,255.17
2022-09-21T21:42:46.884Z,266.40
2022-09-21T21:45:34.808Z,248.73
2022-09-21T21:48:22.935Z,257.77
2022-09-21T21:51:10.768Z,266.13
2022-09-21T21:53:58.711Z,263.33
2022-09-21T21:56:48.016Z,264.67
2022-09-21T21:59:36.163Z,258.00
2022-09-21T22:02:24.440Z,254.20
2022-09-21T22:05:12.394Z,277.60
2022-09-21T22:08:00.285Z,252.03
2022-09-21T22:10:50.167Z,249.80
2022-09-21T22:13:41.017Z,255.30
2022-09-21T22:16:30.236Z,247.67
2022-09-21T22:19:18.940Z,239.80
2022-09-21T22:22:06.812Z,253.47
2022-09-21T22:24:55.068Z,240.47
2022-09-21T22:27:42.966Z,235.37
2022-09-21T22:30:32.483Z,236.30
2022-09-21T22:33:20.354Z,241.23
2022-09-21T22:36:10.129Z,232.77
2022-09-21T22:38:58.456Z,241.23
2022-09-21T22:41:46.349Z,236.23
2022-09-21T22:44:34.226Z,240.53
2022-09-21T22:47:23.470Z,233.93
2022-09-21T22:50:11.311Z,224.93
2022-09-21T22:52:59.176Z,224.87
2022-09-21T22:55:47.120Z,228.70
2022-09-21T22:58:36.289Z,226.80
2022-09-21T23:01:26.278Z,229.00
2022-09-21T23:04:15.650Z,227.00
2022-09-21T23:07:03.601Z,220.93
2022-09-21T23:09:51.516Z,229.10
2022-09-21T23:12:39.381Z,234.73
2022-09-21T23:15:27.310Z,236.87
2022-09-21T23:18:15.170Z,231.70
2022-09-21T23:21:06.288Z,230.47
2022-09-21T23:23:56.004Z,227.33
2022-09-21T23:26:44.019Z,234.03
2022-09-21T23:29:32.352Z,245.20
2022-09-21T23:32:20.231Z,235.53
2022-09-21T23:35:08.736Z,233.27
2022-09-21T23:37:57.965Z,230.73
2022-09-21T23:40:45.915Z,234.13
2022-09-21T23:43:35.438Z,211.03
2022-09-21T23:46:25.553Z,243.63
2022-09-21T23:49:13.536Z,220.33
2022-09-21T23:52:02.332Z,227.43
2022-09-21T23:54:51.592Z,225.13
2022-09-21T23:57:39.473Z,232.90
